Aviation Digital Data Service (ADDS)

Output produced by METARs form (1317 UTC 15 July 2020)
found at http://www.aviationweather.gov/metar/data/
 
METAR text: RJGG 151300Z 26009KT 9999 FEW020 BKN100 22/19 Q1003 BECMG 28008KT
Conditions at: RJGG (NAGOYA/CHUBU , JP) observed 1300 UTC 15 July 2020
Temperature: 22.0°C (72°F)
Dewpoint: 19.0°C (66°F) [RH = 83%]
Pressure (altimeter): 29.62 inches Hg (1003.0 mb)
Winds: from the W (260 degrees) at 10 MPH (9 knots; 4.6 m/s)
Visibility: 6 or more miles (10+ km)
Ceiling: 10000 feet AGL
Clouds: few clouds at 2000 feet AGL
broken clouds at 10000 feet AGL
Weather: no significant weather observed at this time

METAR text: RJGG 151230Z 25009KT 9999 FEW020 BKN120 22/19 Q1003 BECMG 28008KT
Conditions at: RJGG (NAGOYA/CHUBU , JP) observed 1230 UTC 15 July 2020
Temperature: 22.0°C (72°F)
Dewpoint: 19.0°C (66°F) [RH = 83%]
Pressure (altimeter): 29.62 inches Hg (1003.0 mb)
Winds: from the WSW (250 degrees) at 10 MPH (9 knots; 4.6 m/s)
Visibility: 6 or more miles (10+ km)
Ceiling: 12000 feet AGL
Clouds: few clouds at 2000 feet AGL
broken clouds at 12000 feet AGL
Weather: no significant weather observed at this time

METAR text: RJGG 151200Z 28006KT 9999 VCSH FEW020 BKN090 23/19 Q1002 NOSIG
Conditions at: RJGG (NAGOYA/CHUBU , JP) observed 1200 UTC 15 July 2020
Temperature: 23.0°C (73°F)
Dewpoint: 19.0°C (66°F) [RH = 78%]
Pressure (altimeter): 29.59 inches Hg (1002.0 mb)
Winds: from the W (280 degrees) at 7 MPH (6 knots; 3.1 m/s)
Visibility: 6 or more miles (10+ km)
Ceiling: 9000 feet AGL
Clouds: few clouds at 2000 feet AGL
broken clouds at 9000 feet AGL
Weather: VCSH  (showers in vicinity)

METAR text: RJGG 151130Z 32003KT 9999 VCSH FEW020 SCT070 BKN100 23/19 Q1002 NOSIG
Conditions at: RJGG (NAGOYA/CHUBU , JP) observed 1130 UTC 15 July 2020
Temperature: 23.0°C (73°F)
Dewpoint: 19.0°C (66°F) [RH = 78%]
Pressure (altimeter): 29.59 inches Hg (1002.0 mb)
Winds: from the NW (320 degrees) at 3 MPH (3 knots; 1.5 m/s)
Visibility: 6 or more miles (10+ km)
Ceiling: 10000 feet AGL
Clouds: few clouds at 2000 feet AGL
scattered clouds at 7000 feet AGL
broken clouds at 10000 feet AGL
Weather: VCSH  (showers in vicinity)

METAR text: RJGG 151100Z 29005KT 9999 -SHRA FEW020 BKN070 BKN100 22/19 Q1002 NOSIG
Conditions at: RJGG (NAGOYA/CHUBU , JP) observed 1100 UTC 15 July 2020
Temperature: 22.0°C (72°F)
Dewpoint: 19.0°C (66°F) [RH = 83%]
Pressure (altimeter): 29.59 inches Hg (1002.0 mb)
Winds: from the WNW (290 degrees) at 6 MPH (5 knots; 2.6 m/s)
Visibility: 6 or more miles (10+ km)
Ceiling: 7000 feet AGL
Clouds: few clouds at 2000 feet AGL
broken clouds at 7000 feet AGL
broken clouds at 10000 feet AGL
Weather: -SHRA  (light rain showers)

METAR text: RJGG 151030Z 30006KT 9999 -SHRA FEW020 BKN070 23/19 Q1001 NOSIG
Conditions at: RJGG (NAGOYA/CHUBU , JP) observed 1030 UTC 15 July 2020
Temperature: 23.0°C (73°F)
Dewpoint: 19.0°C (66°F) [RH = 78%]
Pressure (altimeter): 29.56 inches Hg (1001.0 mb)
Winds: from the WNW (300 degrees) at 7 MPH (6 knots; 3.1 m/s)
Visibility: 6 or more miles (10+ km)
Ceiling: 7000 feet AGL
Clouds: few clouds at 2000 feet AGL
broken clouds at 7000 feet AGL
Weather: -SHRA  (light rain showers)

METAR text: RJGG 151000Z 28004KT 9999 -SHRA FEW020 SCT035 BKN070 23/19 Q1001 NOSIG
Conditions at: RJGG (NAGOYA/CHUBU , JP) observed 1000 UTC 15 July 2020
Temperature: 23.0°C (73°F)
Dewpoint: 19.0°C (66°F) [RH = 78%]
Pressure (altimeter): 29.56 inches Hg (1001.0 mb)
Winds: from the W (280 degrees) at 5 MPH (4 knots; 2.1 m/s)
Visibility: 6 or more miles (10+ km)
Ceiling: 7000 feet AGL
Clouds: few clouds at 2000 feet AGL
scattered clouds at 3500 feet AGL
broken clouds at 7000 feet AGL
Weather: -SHRA  (light rain showers)

METAR text: RJGG 150930Z 28008KT 9999 FEW020 SCT035 BKN070 22/19 Q1001 NOSIG
Conditions at: RJGG (NAGOYA/CHUBU , JP) observed 0930 UTC 15 July 2020
Temperature: 22.0°C (72°F)
Dewpoint: 19.0°C (66°F) [RH = 83%]
Pressure (altimeter): 29.56 inches Hg (1001.0 mb)
Winds: from the W (280 degrees) at 9 MPH (8 knots; 4.1 m/s)
Visibility: 6 or more miles (10+ km)
Ceiling: 7000 feet AGL
Clouds: few clouds at 2000 feet AGL
scattered clouds at 3500 feet AGL
broken clouds at 7000 feet AGL
Weather: no significant weather observed at this time

METAR text: RJGG 150900Z 29007KT 9999 FEW020 BKN035 BKN100 22/19 Q1001 NOSIG
Conditions at: RJGG (NAGOYA/CHUBU , JP) observed 0900 UTC 15 July 2020
Temperature: 22.0°C (72°F)
Dewpoint: 19.0°C (66°F) [RH = 83%]
Pressure (altimeter): 29.56 inches Hg (1001.0 mb)
Winds: from the WNW (290 degrees) at 8 MPH (7 knots; 3.6 m/s)
Visibility: 6 or more miles (10+ km)
Ceiling: 3500 feet AGL
Clouds: few clouds at 2000 feet AGL
broken clouds at 3500 feet AGL
broken clouds at 10000 feet AGL
Weather: no significant weather observed at this time

METAR text: RJGG 150830Z 28004KT 260V330 9999 FEW020 SCT030 BKN050 23/19 Q1000 NOSIG
Conditions at: RJGG (NAGOYA/CHUBU , JP) observed 0830 UTC 15 July 2020
Temperature: 23.0°C (73°F)
Dewpoint: 19.0°C (66°F) [RH = 78%]
Pressure (altimeter): 29.53 inches Hg (1000.0 mb)
Winds: from the W (280 degrees) at 5 MPH (4 knots; 2.1 m/s)
Visibility: 6 or more miles (10+ km)
Ceiling: 5000 feet AGL
Clouds: few clouds at 2000 feet AGL
scattered clouds at 3000 feet AGL
broken clouds at 5000 feet AGL
Weather: no significant weather observed at this time

METAR text: RJGG 150800Z 26002KT 9999 FEW020 SCT035 BKN050 25/19 Q1000 BECMG 30006KT
Conditions at: RJGG (NAGOYA/CHUBU , JP) observed 0800 UTC 15 July 2020
Temperature: 25.0°C (77°F)
Dewpoint: 19.0°C (66°F) [RH = 69%]
Pressure (altimeter): 29.53 inches Hg (1000.0 mb)
Winds: from the W (260 degrees) at 2 MPH (2 knots; 1.0 m/s)
Visibility: 6 or more miles (10+ km)
Ceiling: 5000 feet AGL
Clouds: few clouds at 2000 feet AGL
scattered clouds at 3500 feet AGL
broken clouds at 5000 feet AGL
Weather: no significant weather observed at this time

METAR text: RJGG 150730Z 32007KT 9999 FEW020 SCT120 BKN/// 23/19 Q1000 NOSIG
Conditions at: RJGG (NAGOYA/CHUBU , JP) observed 0730 UTC 15 July 2020
Temperature: 23.0°C (73°F)
Dewpoint: 19.0°C (66°F) [RH = 78%]
Pressure (altimeter): 29.53 inches Hg (1000.0 mb)
Winds: from the NW (320 degrees) at 8 MPH (7 knots; 3.6 m/s)
Visibility: 6 or more miles (10+ km)
Ceiling: at least 12,000 feet AGL
Clouds: few clouds at 2000 feet AGL
scattered clouds at 12000 feet AGL
Weather: no significant weather observed at this time

METAR text: RJGG 150700Z 28006KT 9999 FEW020 SCT050 BKN/// 24/20 Q1000 NOSIG
Conditions at: RJGG (NAGOYA/CHUBU , JP) observed 0700 UTC 15 July 2020
Temperature: 24.0°C (75°F)
Dewpoint: 20.0°C (68°F) [RH = 78%]
Pressure (altimeter): 29.53 inches Hg (1000.0 mb)
Winds: from the W (280 degrees) at 7 MPH (6 knots; 3.1 m/s)
Visibility: 6 or more miles (10+ km)
Ceiling: at least 12,000 feet AGL
Clouds: few clouds at 2000 feet AGL
scattered clouds at 5000 feet AGL
Weather: no significant weather observed at this time

METAR text: RJGG 150630Z 26009KT 9999 FEW020 BKN/// 25/20 Q1000 NOSIG
Conditions at: RJGG (NAGOYA/CHUBU , JP) observed 0630 UTC 15 July 2020
Temperature: 25.0°C (77°F)
Dewpoint: 20.0°C (68°F) [RH = 74%]
Pressure (altimeter): 29.53 inches Hg (1000.0 mb)
Winds: from the W (260 degrees) at 10 MPH (9 knots; 4.6 m/s)
Visibility: 6 or more miles (10+ km)
Ceiling: at least 12,000 feet AGL
Clouds: few clouds at 2000 feet AGL
Weather: no significant weather observed at this time

METAR text: RJGG 150600Z 26010KT 9999 FEW020 SCT050 BKN180 24/20 Q1000 NOSIG
Conditions at: RJGG (NAGOYA/CHUBU , JP) observed 0600 UTC 15 July 2020
Temperature: 24.0°C (75°F)
Dewpoint: 20.0°C (68°F) [RH = 78%]
Pressure (altimeter): 29.53 inches Hg (1000.0 mb)
Winds: from the W (260 degrees) at 12 MPH (10 knots; 5.1 m/s)
Visibility: 6 or more miles (10+ km)
Ceiling: 18000 feet AGL
Clouds: few clouds at 2000 feet AGL
scattered clouds at 5000 feet AGL
broken clouds at 18000 feet AGL
Weather: no significant weather observed at this time

METAR text: RJGG 150530Z 26009KT 9999 FEW020 SCT050 BKN160 25/20 Q1000 BECMG TL0600 24010KT
Conditions at: RJGG (NAGOYA/CHUBU , JP) observed 0530 UTC 15 July 2020
Temperature: 25.0°C (77°F)
Dewpoint: 20.0°C (68°F) [RH = 74%]
Pressure (altimeter): 29.53 inches Hg (1000.0 mb)
Winds: from the W (260 degrees) at 10 MPH (9 knots; 4.6 m/s)
Visibility: 6 or more miles (10+ km)
Ceiling: 16000 feet AGL
Clouds: few clouds at 2000 feet AGL
scattered clouds at 5000 feet AGL
broken clouds at 16000 feet AGL
Weather: no significant weather observed at this time

METAR text: RJGG 150500Z 26013KT 9999 FEW020 SCT045 BKN150 24/19 Q1000 BECMG TL0600 24010KT
Conditions at: RJGG (NAGOYA/CHUBU , JP) observed 0500 UTC 15 July 2020
Temperature: 24.0°C (75°F)
Dewpoint: 19.0°C (66°F) [RH = 74%]
Pressure (altimeter): 29.53 inches Hg (1000.0 mb)
Winds: from the W (260 degrees) at 15 MPH (13 knots; 6.7 m/s)
Visibility: 6 or more miles (10+ km)
Ceiling: 15000 feet AGL
Clouds: few clouds at 2000 feet AGL
scattered clouds at 4500 feet AGL
broken clouds at 15000 feet AGL
Weather: no significant weather observed at this time

METAR text: RJGG 150430Z 25013KT 9999 -SHRA FEW020 SCT040 BKN130 24/19 Q1000 NOSIG
Conditions at: RJGG (NAGOYA/CHUBU , JP) observed 0430 UTC 15 July 2020
Temperature: 24.0°C (75°F)
Dewpoint: 19.0°C (66°F) [RH = 74%]
Pressure (altimeter): 29.53 inches Hg (1000.0 mb)
Winds: from the WSW (250 degrees) at 15 MPH (13 knots; 6.7 m/s)
Visibility: 6 or more miles (10+ km)
Ceiling: 13000 feet AGL
Clouds: few clouds at 2000 feet AGL
scattered clouds at 4000 feet AGL
broken clouds at 13000 feet AGL
Weather: -SHRA  (light rain showers)

METAR text: RJGG 150400Z 24009KT 9999 FEW020 SCT040 BKN150 23/19 Q1000 NOSIG
Conditions at: RJGG (NAGOYA/CHUBU , JP) observed 0400 UTC 15 July 2020
Temperature: 23.0°C (73°F)
Dewpoint: 19.0°C (66°F) [RH = 78%]
Pressure (altimeter): 29.53 inches Hg (1000.0 mb)
Winds: from the WSW (240 degrees) at 10 MPH (9 knots; 4.6 m/s)
Visibility: 6 or more miles (10+ km)
Ceiling: 15000 feet AGL
Clouds: few clouds at 2000 feet AGL
scattered clouds at 4000 feet AGL
broken clouds at 15000 feet AGL
Weather: no significant weather observed at this time

METAR text: RJGG 150330Z 24011KT 9999 FEW020 SCT040 BKN150 23/19 Q1000 NOSIG
Conditions at: RJGG (NAGOYA/CHUBU , JP) observed 0330 UTC 15 July 2020
Temperature: 23.0°C (73°F)
Dewpoint: 19.0°C (66°F) [RH = 78%]
Pressure (altimeter): 29.53 inches Hg (1000.0 mb)
Winds: from the WSW (240 degrees) at 13 MPH (11 knots; 5.7 m/s)
Visibility: 6 or more miles (10+ km)
Ceiling: 15000 feet AGL
Clouds: few clouds at 2000 feet AGL
scattered clouds at 4000 feet AGL
broken clouds at 15000 feet AGL
Weather: no significant weather observed at this time

METAR text: RJGG 150300Z 25011KT 9999 FEW020 SCT040 BKN150 23/19 Q1000 NOSIG
Conditions at: RJGG (NAGOYA/CHUBU , JP) observed 0300 UTC 15 July 2020
Temperature: 23.0°C (73°F)
Dewpoint: 19.0°C (66°F) [RH = 78%]
Pressure (altimeter): 29.53 inches Hg (1000.0 mb)
Winds: from the WSW (250 degrees) at 13 MPH (11 knots; 5.7 m/s)
Visibility: 6 or more miles (10+ km)
Ceiling: 15000 feet AGL
Clouds: few clouds at 2000 feet AGL
scattered clouds at 4000 feet AGL
broken clouds at 15000 feet AGL
Weather: no significant weather observed at this time

METAR text: RJGG 150230Z 26011KT 9999 FEW020 SCT040 BKN150 23/19 Q1000 BECMG 24010KT
Conditions at: RJGG (NAGOYA/CHUBU , JP) observed 0230 UTC 15 July 2020
Temperature: 23.0°C (73°F)
Dewpoint: 19.0°C (66°F) [RH = 78%]
Pressure (altimeter): 29.53 inches Hg (1000.0 mb)
Winds: from the W (260 degrees) at 13 MPH (11 knots; 5.7 m/s)
Visibility: 6 or more miles (10+ km)
Ceiling: 15000 feet AGL
Clouds: few clouds at 2000 feet AGL
scattered clouds at 4000 feet AGL
broken clouds at 15000 feet AGL
Weather: no significant weather observed at this time

METAR text: RJGG 150200Z 25009KT 9999 FEW020 SCT040 BKN150 23/19 Q1000 NOSIG
Conditions at: RJGG (NAGOYA/CHUBU , JP) observed 0200 UTC 15 July 2020
Temperature: 23.0°C (73°F)
Dewpoint: 19.0°C (66°F) [RH = 78%]
Pressure (altimeter): 29.53 inches Hg (1000.0 mb)
Winds: from the WSW (250 degrees) at 10 MPH (9 knots; 4.6 m/s)
Visibility: 6 or more miles (10+ km)
Ceiling: 15000 feet AGL
Clouds: few clouds at 2000 feet AGL
scattered clouds at 4000 feet AGL
broken clouds at 15000 feet AGL
Weather: no significant weather observed at this time

METAR text: RJGG 150130Z 25011KT 9999 VCSH FEW020 BKN040 23/19 Q1000 NOSIG
Conditions at: RJGG (NAGOYA/CHUBU , JP) observed 0130 UTC 15 July 2020
Temperature: 23.0°C (73°F)
Dewpoint: 19.0°C (66°F) [RH = 78%]
Pressure (altimeter): 29.53 inches Hg (1000.0 mb)
Winds: from the WSW (250 degrees) at 13 MPH (11 knots; 5.7 m/s)
Visibility: 6 or more miles (10+ km)
Ceiling: 4000 feet AGL
Clouds: few clouds at 2000 feet AGL
broken clouds at 4000 feet AGL
Weather: VCSH  (showers in vicinity)

METAR text: RJGG 150100Z 24011KT 9999 -SHRA FEW020 BKN040 BKN170 23/19 Q1000 NOSIG
Conditions at: RJGG (NAGOYA/CHUBU , JP) observed 0100 UTC 15 July 2020
Temperature: 23.0°C (73°F)
Dewpoint: 19.0°C (66°F) [RH = 78%]
Pressure (altimeter): 29.53 inches Hg (1000.0 mb)
Winds: from the WSW (240 degrees) at 13 MPH (11 knots; 5.7 m/s)
Visibility: 6 or more miles (10+ km)
Ceiling: 4000 feet AGL
Clouds: few clouds at 2000 feet AGL
broken clouds at 4000 feet AGL
broken clouds at 17000 feet AGL
Weather: -SHRA  (light rain showers)

METAR text: RJGG 150030Z 25011KT 9999 VCSH FEW020 SCT050 BKN170 22/19 Q1000 NOSIG
Conditions at: RJGG (NAGOYA/CHUBU , JP) observed 0030 UTC 15 July 2020
Temperature: 22.0°C (72°F)
Dewpoint: 19.0°C (66°F) [RH = 83%]
Pressure (altimeter): 29.53 inches Hg (1000.0 mb)
Winds: from the WSW (250 degrees) at 13 MPH (11 knots; 5.7 m/s)
Visibility: 6 or more miles (10+ km)
Ceiling: 17000 feet AGL
Clouds: few clouds at 2000 feet AGL
scattered clouds at 5000 feet AGL
broken clouds at 17000 feet AGL
Weather: VCSH  (showers in vicinity)

METAR text: RJGG 150000Z 26015KT 9999 FEW020 SCT050 BKN170 22/19 Q1000 BECMG 25012KT
Conditions at: RJGG (NAGOYA/CHUBU , JP) observed 0000 UTC 15 July 2020
Temperature: 22.0°C (72°F)
Dewpoint: 19.0°C (66°F) [RH = 83%]
Pressure (altimeter): 29.53 inches Hg (1000.0 mb)
Winds: from the W (260 degrees) at 17 MPH (15 knots; 7.7 m/s)
Visibility: 6 or more miles (10+ km)
Ceiling: 17000 feet AGL
Clouds: few clouds at 2000 feet AGL
scattered clouds at 5000 feet AGL
broken clouds at 17000 feet AGL
Weather: no significant weather observed at this time

METAR text: RJGG 142330Z 26011KT 9999 FEW020 SCT060 BKN/// 22/19 Q1000 BECMG 25012KT
Conditions at: RJGG (NAGOYA/CHUBU , JP) observed 2330 UTC 14 July 2020
Temperature: 22.0°C (72°F)
Dewpoint: 19.0°C (66°F) [RH = 83%]
Pressure (altimeter): 29.53 inches Hg (1000.0 mb)
Winds: from the W (260 degrees) at 13 MPH (11 knots; 5.7 m/s)
Visibility: 6 or more miles (10+ km)
Ceiling: at least 12,000 feet AGL
Clouds: few clouds at 2000 feet AGL
scattered clouds at 6000 feet AGL
Weather: no significant weather observed at this time

METAR text: RJGG 142300Z 25014KT 9999 FEW020 BKN170 22/19 Q1000 NOSIG
Conditions at: RJGG (NAGOYA/CHUBU , JP) observed 2300 UTC 14 July 2020
Temperature: 22.0°C (72°F)
Dewpoint: 19.0°C (66°F) [RH = 83%]
Pressure (altimeter): 29.53 inches Hg (1000.0 mb)
Winds: from the WSW (250 degrees) at 16 MPH (14 knots; 7.2 m/s)
Visibility: 6 or more miles (10+ km)
Ceiling: 17000 feet AGL
Clouds: few clouds at 2000 feet AGL
broken clouds at 17000 feet AGL
Weather: no significant weather observed at this time

METAR text: RJGG 142230Z 25015KT 9999 FEW020 SCT080 BKN/// 22/19 Q1000 NOSIG
Conditions at: RJGG (NAGOYA/CHUBU , JP) observed 2230 UTC 14 July 2020
Temperature: 22.0°C (72°F)
Dewpoint: 19.0°C (66°F) [RH = 83%]
Pressure (altimeter): 29.53 inches Hg (1000.0 mb)
Winds: from the WSW (250 degrees) at 17 MPH (15 knots; 7.7 m/s)
Visibility: 6 or more miles (10+ km)
Ceiling: at least 12,000 feet AGL
Clouds: few clouds at 2000 feet AGL
scattered clouds at 8000 feet AGL
Weather: no significant weather observed at this time

METAR text: RJGG 142200Z 25012KT 9999 FEW020 SCT100 BKN/// 21/19 Q1000 NOSIG
Conditions at: RJGG (NAGOYA/CHUBU , JP) observed 2200 UTC 14 July 2020
Temperature: 21.0°C (70°F)
Dewpoint: 19.0°C (66°F) [RH = 88%]
Pressure (altimeter): 29.53 inches Hg (1000.0 mb)
Winds: from the WSW (250 degrees) at 14 MPH (12 knots; 6.2 m/s)
Visibility: 6 or more miles (10+ km)
Ceiling: at least 12,000 feet AGL
Clouds: few clouds at 2000 feet AGL
scattered clouds at 10000 feet AGL
Weather: no significant weather observed at this time

METAR text: RJGG 142130Z 25012KT 9999 FEW020 SCT050 BKN080 22/19 Q0999 NOSIG
Conditions at: RJGG (NAGOYA/CHUBU , JP) observed 2130 UTC 14 July 2020
Temperature: 22.0°C (72°F)
Dewpoint: 19.0°C (66°F) [RH = 83%]
Pressure (altimeter): 29.50 inches Hg (999.0 mb)
Winds: from the WSW (250 degrees) at 14 MPH (12 knots; 6.2 m/s)
Visibility: 6 or more miles (10+ km)
Ceiling: 8000 feet AGL
Clouds: few clouds at 2000 feet AGL
scattered clouds at 5000 feet AGL
broken clouds at 8000 feet AGL
Weather: no significant weather observed at this time

METAR text: RJGG 142100Z 22012KT 9999 FEW020 BKN050 BKN080 21/19 Q0999 NOSIG
Conditions at: RJGG (NAGOYA/CHUBU , JP) observed 2100 UTC 14 July 2020
Temperature: 21.0°C (70°F)
Dewpoint: 19.0°C (66°F) [RH = 88%]
Pressure (altimeter): 29.50 inches Hg (999.0 mb)
Winds: from the SW (220 degrees) at 14 MPH (12 knots; 6.2 m/s)
Visibility: 6 or more miles (10+ km)
Ceiling: 5000 feet AGL
Clouds: few clouds at 2000 feet AGL
broken clouds at 5000 feet AGL
broken clouds at 8000 feet AGL
Weather: no significant weather observed at this time

METAR text: RJGG 142030Z 24012KT 9999 FEW020 SCT050 BKN090 22/19 Q0999 BECMG 27012KT
Conditions at: RJGG (NAGOYA/CHUBU , JP) observed 2030 UTC 14 July 2020
Temperature: 22.0°C (72°F)
Dewpoint: 19.0°C (66°F) [RH = 83%]
Pressure (altimeter): 29.50 inches Hg (999.0 mb)
Winds: from the WSW (240 degrees) at 14 MPH (12 knots; 6.2 m/s)
Visibility: 6 or more miles (10+ km)
Ceiling: 9000 feet AGL
Clouds: few clouds at 2000 feet AGL
scattered clouds at 5000 feet AGL
broken clouds at 9000 feet AGL
Weather: no significant weather observed at this time

METAR text: RJGG 142000Z 25015KT 9999 FEW020 BKN090 22/19 Q0999 BECMG 27012KT
Conditions at: RJGG (NAGOYA/CHUBU , JP) observed 2000 UTC 14 July 2020
Temperature: 22.0°C (72°F)
Dewpoint: 19.0°C (66°F) [RH = 83%]
Pressure (altimeter): 29.50 inches Hg (999.0 mb)
Winds: from the WSW (250 degrees) at 17 MPH (15 knots; 7.7 m/s)
Visibility: 6 or more miles (10+ km)
Ceiling: 9000 feet AGL
Clouds: few clouds at 2000 feet AGL
broken clouds at 9000 feet AGL
Weather: no significant weather observed at this time

METAR text: RJGG 141930Z 25016KT 9999 FEW020 BKN090 22/19 Q0998 BECMG 27012KT
Conditions at: RJGG (NAGOYA/CHUBU , JP) observed 1930 UTC 14 July 2020
Temperature: 22.0°C (72°F)
Dewpoint: 19.0°C (66°F) [RH = 83%]
Pressure (altimeter): 29.47 inches Hg (998.0 mb)
Winds: from the WSW (250 degrees) at 18 MPH (16 knots; 8.2 m/s)
Visibility: 6 or more miles (10+ km)
Ceiling: 9000 feet AGL
Clouds: few clouds at 2000 feet AGL
broken clouds at 9000 feet AGL
Weather: no significant weather observed at this time

METAR text: RJGG 141900Z 25014KT 9999 FEW020 SCT080 BKN/// 22/19 Q0998 BECMG 27012KT
Conditions at: RJGG (NAGOYA/CHUBU , JP) observed 1900 UTC 14 July 2020
Temperature: 22.0°C (72°F)
Dewpoint: 19.0°C (66°F) [RH = 83%]
Pressure (altimeter): 29.47 inches Hg (998.0 mb)
Winds: from the WSW (250 degrees) at 16 MPH (14 knots; 7.2 m/s)
Visibility: 6 or more miles (10+ km)
Ceiling: at least 12,000 feet AGL
Clouds: few clouds at 2000 feet AGL
scattered clouds at 8000 feet AGL
Weather: no significant weather observed at this time

METAR text: RJGG 141830Z 24012KT 9999 FEW020 BKN/// 22/19 Q0998 BECMG 27010KT
Conditions at: RJGG (NAGOYA/CHUBU , JP) observed 1830 UTC 14 July 2020
Temperature: 22.0°C (72°F)
Dewpoint: 19.0°C (66°F) [RH = 83%]
Pressure (altimeter): 29.47 inches Hg (998.0 mb)
Winds: from the WSW (240 degrees) at 14 MPH (12 knots; 6.2 m/s)
Visibility: 6 or more miles (10+ km)
Ceiling: at least 12,000 feet AGL
Clouds: few clouds at 2000 feet AGL
Weather: no significant weather observed at this time

METAR text: RJGG 141800Z 22008KT 9999 FEW020 SCT/// 22/19 Q0998 BECMG 27010KT
Conditions at: RJGG (NAGOYA/CHUBU , JP) observed 1800 UTC 14 July 2020
Temperature: 22.0°C (72°F)
Dewpoint: 19.0°C (66°F) [RH = 83%]
Pressure (altimeter): 29.47 inches Hg (998.0 mb)
Winds: from the SW (220 degrees) at 9 MPH (8 knots; 4.1 m/s)
Visibility: 6 or more miles (10+ km)
Ceiling: at least 12,000 feet AGL
Clouds: few clouds at 2000 feet AGL
Weather: no significant weather observed at this time

METAR text: RJGG 141730Z 22008KT 9999 FEW020 23/20 Q0998 BECMG 27010KT
Conditions at: RJGG (NAGOYA/CHUBU , JP) observed 1730 UTC 14 July 2020
Temperature: 23.0°C (73°F)
Dewpoint: 20.0°C (68°F) [RH = 83%]
Pressure (altimeter): 29.47 inches Hg (998.0 mb)
Winds: from the SW (220 degrees) at 9 MPH (8 knots; 4.1 m/s)
Visibility: 6 or more miles (10+ km)
Ceiling: at least 12,000 feet AGL
Clouds: few clouds at 2000 feet AGL
Weather: no significant weather observed at this time

METAR text: RJGG 141700Z 25007KT 9999 FEW020 23/20 Q0998 BECMG 27010KT
Conditions at: RJGG (NAGOYA/CHUBU , JP) observed 1700 UTC 14 July 2020
Temperature: 23.0°C (73°F)
Dewpoint: 20.0°C (68°F) [RH = 83%]
Pressure (altimeter): 29.47 inches Hg (998.0 mb)
Winds: from the WSW (250 degrees) at 8 MPH (7 knots; 3.6 m/s)
Visibility: 6 or more miles (10+ km)
Ceiling: at least 12,000 feet AGL
Clouds: few clouds at 2000 feet AGL
Weather: no significant weather observed at this time

METAR text: RJGG 141630Z 26009KT 9999 FEW020 SCT080 23/20 Q0998 NOSIG
Conditions at: RJGG (NAGOYA/CHUBU , JP) observed 1630 UTC 14 July 2020
Temperature: 23.0°C (73°F)
Dewpoint: 20.0°C (68°F) [RH = 83%]
Pressure (altimeter): 29.47 inches Hg (998.0 mb)
Winds: from the W (260 degrees) at 10 MPH (9 knots; 4.6 m/s)
Visibility: 6 or more miles (10+ km)
Ceiling: at least 12,000 feet AGL
Clouds: few clouds at 2000 feet AGL
scattered clouds at 8000 feet AGL
Weather: no significant weather observed at this time

METAR text: RJGG 141600Z 26013KT 9999 FEW020 BKN080 23/20 Q0998 NOSIG
Conditions at: RJGG (NAGOYA/CHUBU , JP) observed 1600 UTC 14 July 2020
Temperature: 23.0°C (73°F)
Dewpoint: 20.0°C (68°F) [RH = 83%]
Pressure (altimeter): 29.47 inches Hg (998.0 mb)
Winds: from the W (260 degrees) at 15 MPH (13 knots; 6.7 m/s)
Visibility: 6 or more miles (10+ km)
Ceiling: 8000 feet AGL
Clouds: few clouds at 2000 feet AGL
broken clouds at 8000 feet AGL
Weather: no significant weather observed at this time

METAR text: RJGG 141530Z 26011KT 9999 FEW020 BKN080 23/20 Q0998 NOSIG
Conditions at: RJGG (NAGOYA/CHUBU , JP) observed 1530 UTC 14 July 2020
Temperature: 23.0°C (73°F)
Dewpoint: 20.0°C (68°F) [RH = 83%]
Pressure (altimeter): 29.47 inches Hg (998.0 mb)
Winds: from the W (260 degrees) at 13 MPH (11 knots; 5.7 m/s)
Visibility: 6 or more miles (10+ km)
Ceiling: 8000 feet AGL
Clouds: few clouds at 2000 feet AGL
broken clouds at 8000 feet AGL
Weather: no significant weather observed at this time

METAR text: RJGG 141500Z 26012KT 9999 FEW020 BKN080 24/20 Q0998 NOSIG
Conditions at: RJGG (NAGOYA/CHUBU , JP) observed 1500 UTC 14 July 2020
Temperature: 24.0°C (75°F)
Dewpoint: 20.0°C (68°F) [RH = 78%]
Pressure (altimeter): 29.47 inches Hg (998.0 mb)
Winds: from the W (260 degrees) at 14 MPH (12 knots; 6.2 m/s)
Visibility: 6 or more miles (10+ km)
Ceiling: 8000 feet AGL
Clouds: few clouds at 2000 feet AGL
broken clouds at 8000 feet AGL
Weather: no significant weather observed at this time

METAR text: RJGG 141430Z 25007KT 9999 FEW015 BKN080 23/20 Q0998 BECMG 27010KT
Conditions at: RJGG (NAGOYA/CHUBU , JP) observed 1430 UTC 14 July 2020
Temperature: 23.0°C (73°F)
Dewpoint: 20.0°C (68°F) [RH = 83%]
Pressure (altimeter): 29.47 inches Hg (998.0 mb)
Winds: from the WSW (250 degrees) at 8 MPH (7 knots; 3.6 m/s)
Visibility: 6 or more miles (10+ km)
Ceiling: 8000 feet AGL
Clouds: few clouds at 1500 feet AGL
broken clouds at 8000 feet AGL
Weather: no significant weather observed at this time

METAR text: RJGG 141400Z 23007KT 9999 FEW015 BKN080 23/21 Q0998 BECMG 27010KT
Conditions at: RJGG (NAGOYA/CHUBU , JP) observed 1400 UTC 14 July 2020
Temperature: 23.0°C (73°F)
Dewpoint: 21.0°C (70°F) [RH = 89%]
Pressure (altimeter): 29.47 inches Hg (998.0 mb)
Winds: from the SW (230 degrees) at 8 MPH (7 knots; 3.6 m/s)
Visibility: 6 or more miles (10+ km)
Ceiling: 8000 feet AGL
Clouds: few clouds at 1500 feet AGL
broken clouds at 8000 feet AGL
Weather: no significant weather observed at this time

METAR text: RJGG 141330Z 23007KT 9999 FEW015 BKN080 23/21 Q0998 BECMG 27010KT
Conditions at: RJGG (NAGOYA/CHUBU , JP) observed 1330 UTC 14 July 2020
Temperature: 23.0°C (73°F)
Dewpoint: 21.0°C (70°F) [RH = 89%]
Pressure (altimeter): 29.47 inches Hg (998.0 mb)
Winds: from the SW (230 degrees) at 8 MPH (7 knots; 3.6 m/s)
Visibility: 6 or more miles (10+ km)
Ceiling: 8000 feet AGL
Clouds: few clouds at 1500 feet AGL
broken clouds at 8000 feet AGL
Weather: no significant weather observed at this time

METAR text: RJGG 141300Z 21007KT 9999 FEW015 BKN080 23/22 Q0999 BECMG 27010KT
Conditions at: RJGG (NAGOYA/CHUBU , JP) observed 1300 UTC 14 July 2020
Temperature: 23.0°C (73°F)
Dewpoint: 22.0°C (72°F) [RH = 94%]
Pressure (altimeter): 29.50 inches Hg (999.0 mb)
Winds: from the SSW (210 degrees) at 8 MPH (7 knots; 3.6 m/s)
Visibility: 6 or more miles (10+ km)
Ceiling: 8000 feet AGL
Clouds: few clouds at 1500 feet AGL
broken clouds at 8000 feet AGL
Weather: no significant weather observed at this time

METAR text: RJGG 141230Z 20007KT 9999 FEW015 BKN070 23/21 Q0999 NOSIG
Conditions at: RJGG (NAGOYA/CHUBU , JP) observed 1230 UTC 14 July 2020
Temperature: 23.0°C (73°F)
Dewpoint: 21.0°C (70°F) [RH = 89%]
Pressure (altimeter): 29.50 inches Hg (999.0 mb)
Winds: from the SSW (200 degrees) at 8 MPH (7 knots; 3.6 m/s)
Visibility: 6 or more miles (10+ km)
Ceiling: 7000 feet AGL
Clouds: few clouds at 1500 feet AGL
broken clouds at 7000 feet AGL
Weather: no significant weather observed at this time

METAR text: RJGG 141200Z 18008KT 9999 FEW015 SCT050 BKN080 23/22 Q0999 NOSIG
Conditions at: RJGG (NAGOYA/CHUBU , JP) observed 1200 UTC 14 July 2020
Temperature: 23.0°C (73°F)
Dewpoint: 22.0°C (72°F) [RH = 94%]
Pressure (altimeter): 29.50 inches Hg (999.0 mb)
Winds: from the S (180 degrees) at 9 MPH (8 knots; 4.1 m/s)
Visibility: 6 or more miles (10+ km)
Ceiling: 8000 feet AGL
Clouds: few clouds at 1500 feet AGL
scattered clouds at 5000 feet AGL
broken clouds at 8000 feet AGL
Weather: no significant weather observed at this time

METAR text: RJGG 141130Z 18008KT 9999 FEW015 SCT050 BKN080 23/22 Q0999 NOSIG
Conditions at: RJGG (NAGOYA/CHUBU , JP) observed 1130 UTC 14 July 2020
Temperature: 23.0°C (73°F)
Dewpoint: 22.0°C (72°F) [RH = 94%]
Pressure (altimeter): 29.50 inches Hg (999.0 mb)
Winds: from the S (180 degrees) at 9 MPH (8 knots; 4.1 m/s)
Visibility: 6 or more miles (10+ km)
Ceiling: 8000 feet AGL
Clouds: few clouds at 1500 feet AGL
scattered clouds at 5000 feet AGL
broken clouds at 8000 feet AGL
Weather: no significant weather observed at this time

METAR text: RJGG 141100Z 18008KT 9999 FEW015 SCT080 23/21 Q0998 NOSIG
Conditions at: RJGG (NAGOYA/CHUBU , JP) observed 1100 UTC 14 July 2020
Temperature: 23.0°C (73°F)
Dewpoint: 21.0°C (70°F) [RH = 89%]
Pressure (altimeter): 29.47 inches Hg (998.0 mb)
Winds: from the S (180 degrees) at 9 MPH (8 knots; 4.1 m/s)
Visibility: 6 or more miles (10+ km)
Ceiling: at least 12,000 feet AGL
Clouds: few clouds at 1500 feet AGL
scattered clouds at 8000 feet AGL
Weather: no significant weather observed at this time

METAR text: RJGG 141030Z 18008KT 9999 FEW015 BKN060 23/21 Q0998 NOSIG
Conditions at: RJGG (NAGOYA/CHUBU , JP) observed 1030 UTC 14 July 2020
Temperature: 23.0°C (73°F)
Dewpoint: 21.0°C (70°F) [RH = 89%]
Pressure (altimeter): 29.47 inches Hg (998.0 mb)
Winds: from the S (180 degrees) at 9 MPH (8 knots; 4.1 m/s)
Visibility: 6 or more miles (10+ km)
Ceiling: 6000 feet AGL
Clouds: few clouds at 1500 feet AGL
broken clouds at 6000 feet AGL
Weather: no significant weather observed at this time

METAR text: RJGG 141000Z 19007KT 9999 FEW015 BKN050 24/21 Q0998 NOSIG
Conditions at: RJGG (NAGOYA/CHUBU , JP) observed 1000 UTC 14 July 2020
Temperature: 24.0°C (75°F)
Dewpoint: 21.0°C (70°F) [RH = 83%]
Pressure (altimeter): 29.47 inches Hg (998.0 mb)
Winds: from the S (190 degrees) at 8 MPH (7 knots; 3.6 m/s)
Visibility: 6 or more miles (10+ km)
Ceiling: 5000 feet AGL
Clouds: few clouds at 1500 feet AGL
broken clouds at 5000 feet AGL
Weather: no significant weather observed at this time

METAR text: RJGG 140930Z 17003KT 9999 FEW015 BKN050 25/22 Q0998 NOSIG
Conditions at: RJGG (NAGOYA/CHUBU , JP) observed 0930 UTC 14 July 2020
Temperature: 25.0°C (77°F)
Dewpoint: 22.0°C (72°F) [RH = 83%]
Pressure (altimeter): 29.47 inches Hg (998.0 mb)
Winds: from the S (170 degrees) at 3 MPH (3 knots; 1.5 m/s)
Visibility: 6 or more miles (10+ km)
Ceiling: 5000 feet AGL
Clouds: few clouds at 1500 feet AGL
broken clouds at 5000 feet AGL
Weather: no significant weather observed at this time

METAR text: RJGG 140900Z 00000KT 9999 VCSH FEW010 SCT030 BKN060 25/21 Q0998 BECMG 24006KT
Conditions at: RJGG (NAGOYA/CHUBU , JP) observed 0900 UTC 14 July 2020
Temperature: 25.0°C (77°F)
Dewpoint: 21.0°C (70°F) [RH = 79%]
Pressure (altimeter): 29.47 inches Hg (998.0 mb)
Winds: calm
Visibility: 6 or more miles (10+ km)
Ceiling: 6000 feet AGL
Clouds: few clouds at 1000 feet AGL
scattered clouds at 3000 feet AGL
broken clouds at 6000 feet AGL
Weather: VCSH  (showers in vicinity)

METAR text: RJGG 140830Z 33002KT 9999 -SHRA FEW010 SCT030 BKN040 25/22 Q0998 BECMG 24006KT
Conditions at: RJGG (NAGOYA/CHUBU , JP) observed 0830 UTC 14 July 2020
Temperature: 25.0°C (77°F)
Dewpoint: 22.0°C (72°F) [RH = 83%]
Pressure (altimeter): 29.47 inches Hg (998.0 mb)
Winds: from the NNW (330 degrees) at 2 MPH (2 knots; 1.0 m/s)
Visibility: 6 or more miles (10+ km)
Ceiling: 4000 feet AGL
Clouds: few clouds at 1000 feet AGL
scattered clouds at 3000 feet AGL
broken clouds at 4000 feet AGL
Weather: -SHRA  (light rain showers)

METAR text: RJGG 140800Z VRB02KT 9999 FEW010 BKN040 25/22 Q0998 BECMG 24006KT
Conditions at: RJGG (NAGOYA/CHUBU , JP) observed 0800 UTC 14 July 2020
Temperature: 25.0°C (77°F)
Dewpoint: 22.0°C (72°F) [RH = 83%]
Pressure (altimeter): 29.47 inches Hg (998.0 mb)
Winds: variable direction winds at 2 MPH (2 knots; 1.0 m/s)
Visibility: 6 or more miles (10+ km)
Ceiling: 4000 feet AGL
Clouds: few clouds at 1000 feet AGL
broken clouds at 4000 feet AGL
Weather: no significant weather observed at this time

METAR text: RJGG 140730Z 05004KT 9999 FEW010 BKN040 25/22 Q0998 BECMG 16006KT
Conditions at: RJGG (NAGOYA/CHUBU , JP) observed 0730 UTC 14 July 2020
Temperature: 25.0°C (77°F)
Dewpoint: 22.0°C (72°F) [RH = 83%]
Pressure (altimeter): 29.47 inches Hg (998.0 mb)
Winds: from the NE (50 degrees) at 5 MPH (4 knots; 2.1 m/s)
Visibility: 6 or more miles (10+ km)
Ceiling: 4000 feet AGL
Clouds: few clouds at 1000 feet AGL
broken clouds at 4000 feet AGL
Weather: no significant weather observed at this time

METAR text: RJGG 140700Z 33003KT 310V030 9999 FEW010 BKN045 25/22 Q0998 BECMG 16006KT
Conditions at: RJGG (NAGOYA/CHUBU , JP) observed 0700 UTC 14 July 2020
Temperature: 25.0°C (77°F)
Dewpoint: 22.0°C (72°F) [RH = 83%]
Pressure (altimeter): 29.47 inches Hg (998.0 mb)
Winds: from the NNW (330 degrees) at 3 MPH (3 knots; 1.5 m/s)
Visibility: 6 or more miles (10+ km)
Ceiling: 4500 feet AGL
Clouds: few clouds at 1000 feet AGL
broken clouds at 4500 feet AGL
Weather: no significant weather observed at this time

METAR text: RJGG 140630Z VRB02KT 9999 FEW012 SCT020 BKN050 24/22 Q0999 BECMG 16006KT
Conditions at: RJGG (NAGOYA/CHUBU , JP) observed 0630 UTC 14 July 2020
Temperature: 24.0°C (75°F)
Dewpoint: 22.0°C (72°F) [RH = 89%]
Pressure (altimeter): 29.50 inches Hg (999.0 mb)
Winds: variable direction winds at 2 MPH (2 knots; 1.0 m/s)
Visibility: 6 or more miles (10+ km)
Ceiling: 5000 feet AGL
Clouds: few clouds at 1200 feet AGL
scattered clouds at 2000 feet AGL
broken clouds at 5000 feet AGL
Weather: no significant weather observed at this time

METAR text: RJGG 140600Z 13004KT 9999 VCSH FEW005 SCT015 BKN060 24/22 Q0999 NOSIG
Conditions at: RJGG (NAGOYA/CHUBU , JP) observed 0600 UTC 14 July 2020
Temperature: 24.0°C (75°F)
Dewpoint: 22.0°C (72°F) [RH = 89%]
Pressure (altimeter): 29.50 inches Hg (999.0 mb)
Winds: from the SE (130 degrees) at 5 MPH (4 knots; 2.1 m/s)
Visibility: 6 or more miles (10+ km)
Ceiling: 6000 feet AGL
Clouds: few clouds at 500 feet AGL
scattered clouds at 1500 feet AGL
broken clouds at 6000 feet AGL
Weather: VCSH  (showers in vicinity)

METAR text: RJGG 140530Z 16010KT 5000 R18/1200VP1800D SHRA BR FEW006 SCT030 BKN050 24/22 Q1000 BECMG -SHRA
Conditions at: RJGG (NAGOYA/CHUBU , JP) observed 0530 UTC 14 July 2020
Temperature: 24.0°C (75°F)
Dewpoint: 22.0°C (72°F) [RH = 89%]
Pressure (altimeter): 29.53 inches Hg (1000.0 mb)
Winds: from the SSE (160 degrees) at 12 MPH (10 knots; 5.1 m/s)
Visibility: 3 miles ( 5 km)
Ceiling: 5000 feet AGL
Clouds: few clouds at 600 feet AGL
scattered clouds at 3000 feet AGL
broken clouds at 5000 feet AGL
Weather: SHRA BR  (rain showers, mist)

METAR text: RJGG 140500Z 15012KT 8000 -SHRA FEW015 SCT035 BKN060 25/23 Q1000 TEMPO 4000 -SHRA BR
Conditions at: RJGG (NAGOYA/CHUBU , JP) observed 0500 UTC 14 July 2020
Temperature: 25.0°C (77°F)
Dewpoint: 23.0°C (73°F) [RH = 89%]
Pressure (altimeter): 29.53 inches Hg (1000.0 mb)
Winds: from the SSE (150 degrees) at 14 MPH (12 knots; 6.2 m/s)
Visibility: 5 miles ( 8 km)
Ceiling: 6000 feet AGL
Clouds: few clouds at 1500 feet AGL
scattered clouds at 3500 feet AGL
broken clouds at 6000 feet AGL
Weather: -SHRA  (light rain showers)

METAR text: RJGG 140430Z 14011KT 9999 -SHRA FEW015 BKN080 BKN140 24/22 Q1000 TEMPO 4000 -SHRA BR
Conditions at: RJGG (NAGOYA/CHUBU , JP) observed 0430 UTC 14 July 2020
Temperature: 24.0°C (75°F)
Dewpoint: 22.0°C (72°F) [RH = 89%]
Pressure (altimeter): 29.53 inches Hg (1000.0 mb)
Winds: from the SE (140 degrees) at 13 MPH (11 knots; 5.7 m/s)
Visibility: 6 or more miles (10+ km)
Ceiling: 8000 feet AGL
Clouds: few clouds at 1500 feet AGL
broken clouds at 8000 feet AGL
broken clouds at 14000 feet AGL
Weather: -SHRA  (light rain showers)

METAR text: RJGG 140400Z 12011KT 9999 -SHRA FEW015 SCT030 BKN045 24/22 Q1001 TEMPO 4000 SHRA BR
Conditions at: RJGG (NAGOYA/CHUBU , JP) observed 0400 UTC 14 July 2020
Temperature: 24.0°C (75°F)
Dewpoint: 22.0°C (72°F) [RH = 89%]
Pressure (altimeter): 29.56 inches Hg (1001.0 mb)
Winds: from the ESE (120 degrees) at 13 MPH (11 knots; 5.7 m/s)
Visibility: 6 or more miles (10+ km)
Ceiling: 4500 feet AGL
Clouds: few clouds at 1500 feet AGL
scattered clouds at 3000 feet AGL
broken clouds at 4500 feet AGL
Weather: -SHRA  (light rain showers)

METAR text: RJGG 140330Z 09010KT 6000 SHRA FEW008 SCT035 BKN045 23/22 Q1001 TEMPO 4000 SHRA BR
Conditions at: RJGG (NAGOYA/CHUBU , JP) observed 0330 UTC 14 July 2020
Temperature: 23.0°C (73°F)
Dewpoint: 22.0°C (72°F) [RH = 94%]
Pressure (altimeter): 29.56 inches Hg (1001.0 mb)
Winds: from the E (90 degrees) at 12 MPH (10 knots; 5.1 m/s)
Visibility: 4 miles ( 6 km)
Ceiling: 4500 feet AGL
Clouds: few clouds at 800 feet AGL
scattered clouds at 3500 feet AGL
broken clouds at 4500 feet AGL
Weather: SHRA  (rain showers)

METAR text: RJGG 140300Z VRB01KT 6000 R36/P1800D SHRA FEW008 SCT035 BKN045 23/22 Q1003 BECMG 28006KT TEMPO 4000 SHRA BR
Conditions at: RJGG (NAGOYA/CHUBU , JP) observed 0300 UTC 14 July 2020
Temperature: 23.0°C (73°F)
Dewpoint: 22.0°C (72°F) [RH = 94%]
Pressure (altimeter): 29.62 inches Hg (1003.0 mb)
Winds: variable direction winds at 1 MPH (1 knots; 0.5 m/s)
Visibility: 4 miles ( 6 km)
Ceiling: 4500 feet AGL
Clouds: few clouds at 800 feet AGL
scattered clouds at 3500 feet AGL
broken clouds at 4500 feet AGL
Weather: SHRA  (rain showers)

METAR text: RJGG 140230Z 29006KT 8000 -SHRA FEW008 SCT035 BKN060 22/21 Q1003 BECMG 20006KT TEMPO 4000 SHRA BR
Conditions at: RJGG (NAGOYA/CHUBU , JP) observed 0230 UTC 14 July 2020
Temperature: 22.0°C (72°F)
Dewpoint: 21.0°C (70°F) [RH = 94%]
Pressure (altimeter): 29.62 inches Hg (1003.0 mb)
Winds: from the WNW (290 degrees) at 7 MPH (6 knots; 3.1 m/s)
Visibility: 5 miles ( 8 km)
Ceiling: 6000 feet AGL
Clouds: few clouds at 800 feet AGL
scattered clouds at 3500 feet AGL
broken clouds at 6000 feet AGL
Weather: -SHRA  (light rain showers)

METAR text: RJGG 140200Z 34004KT 9999 -SHRA FEW008 BKN100 22/21 Q1002 BECMG 20006KT TEMPO 4000 SHRA BR
Conditions at: RJGG (NAGOYA/CHUBU , JP) observed 0200 UTC 14 July 2020
Temperature: 22.0°C (72°F)
Dewpoint: 21.0°C (70°F) [RH = 94%]
Pressure (altimeter): 29.59 inches Hg (1002.0 mb)
Winds: from the NNW (340 degrees) at 5 MPH (4 knots; 2.1 m/s)
Visibility: 6 or more miles (10+ km)
Ceiling: 10000 feet AGL
Clouds: few clouds at 800 feet AGL
broken clouds at 10000 feet AGL
Weather: -SHRA  (light rain showers)

METAR text: RJGG 140130Z 28005KT 230V290 9999 -SHRA FEW005 SCT030 BKN090 23/22 Q1003 BECMG 20006KT TEMPO 4000 SHRA BR
Conditions at: RJGG (NAGOYA/CHUBU , JP) observed 0130 UTC 14 July 2020
Temperature: 23.0°C (73°F)
Dewpoint: 22.0°C (72°F) [RH = 94%]
Pressure (altimeter): 29.62 inches Hg (1003.0 mb)
Winds: from the W (280 degrees) at 6 MPH (5 knots; 2.6 m/s)
Visibility: 6 or more miles (10+ km)
Ceiling: 9000 feet AGL
Clouds: few clouds at 500 feet AGL
scattered clouds at 3000 feet AGL
broken clouds at 9000 feet AGL
Weather: -SHRA  (light rain showers)

Forecast for: RJGG (NAGOYA/CHUBU , JP)
Text: TAF RJGG 151105Z 1512/1618 30006KT 9999 FEW020 SCT045
Forecast period: 1200 UTC 15 July 2020 to 0000 UTC 16 July 2020
Forecast type: FROM: standard forecast or significant change
Winds: from the WNW (300 degrees) at 7 MPH (6 knots; 3.1 m/s)
Visibility: 6 or more miles 10+ km)
Ceiling: at least 12,000 feet AGL
Clouds: few clouds at 2000 feet AGL
scattered clouds at 4500 feet AGL
Weather: no significant weather forecast for this period
Text: BECMG 1600/1603 18008KT
Forecast period: 0000 to 1800 UTC 16 July 2020
Forecast type: BECOMING: Conditions expected to become as follows by 0300 UTC 16 July 2020
Winds: from the S (180 degrees) at 9 MPH (8 knots; 4.1 m/s)
Visibility: 6 or more miles 10+ km)
Ceiling: at least 12,000 feet AGL
Clouds: few clouds at 2000 feet AGL
scattered clouds at 4500 feet AGL
Weather: no significant weather forecast for this period